Wind From: 13-12-2017 10:08 Until: 14-12-2017 06:00 warning for: Wind Level: Yellow info button

Although rather usual in this region, locally or potentially dangerous phenomena are expected. (such as local winds, summer thunderstorms, rising streams or high waves) Be aware and pay attention to the latest weather updates, especially if you carry out activities exposed to weather or close to a stream or shoreline. 


Meteo18 Weather Cam more information Meteo18 Weather Cam


Thunder radar more information blitzortung!


Rain radar more information rain snow radar


Visit our other weather sites:

Template documentation
and downloads

And another site



Weather Underground History page Text

Daily Summary for May 17, 2017 Units:  Metric    English   Both
« Previous Day
Next Day »
Daily Weekly Monthly Yearly Custom
  High: Low: Average:
Temperature: 27.9 °C 12.0 °C 21.1 °C
Dew Point: 17.0 °C 10.7 °C 14.2 °C
Humidity: 93 % 42 % 67 %
Wind Speed: 17.7 km/h 0.0 km/h 4.6 km/h
Wind Gust: 30.6 km/h - -
Wind:- - SSW
Pressure: 1024.6 hPa 1013.8 hPa -
Precipitation: 0.0 mm    
Historical Graphs
 
 
Tabular Data for May 17, 2017
Time Temperature Dew Point Pressure Wind Wind Speed Wind Gust Humidity Rainfall Rate (Hourly)
00:02 17.6 °C 12.9 °C 1024.6 hPa Calm   3.2 km/h 74 % 0.0 mm
00:12 17.3 °C 12.8 °C 1024.6 hPa WNW 1.6 km/h 3.2 km/h 75 % 0.0 mm
00:17 16.8 °C 12.7 °C 1024.6 hPa WNW 3.2 km/h 3.2 km/h 77 % 0.0 mm
00:22 16.6 °C 12.7 °C 1024.6 hPa Calm   3.2 km/h 78 % 0.0 mm
00:32 16.6 °C 12.9 °C 1024.6 hPa Calm   3.2 km/h 79 % 0.0 mm
00:37 16.7 °C 12.8 °C 1024.3 hPa Calm   3.2 km/h 78 % 0.0 mm
00:42 16.7 °C 12.8 °C 1024.3 hPa Calm   1.6 km/h 78 % 0.0 mm
00:52 16.8 °C 12.7 °C 1024.3 hPa Calm   1.6 km/h 77 % 0.0 mm
00:57 16.6 °C 12.7 °C 1024.3 hPa NW 1.6 km/h 1.6 km/h 78 % 0.0 mm
01:02 16.3 °C 12.7 °C 1024.3 hPa NW 1.6 km/h 1.6 km/h 79 % 0.0 mm
01:07 16.3 °C 12.8 °C 1024.3 hPa Calm   1.6 km/h 80 % 0.0 mm
01:12 16.8 °C 12.9 °C 1024.3 hPa Calm   1.6 km/h 78 % 0.0 mm
01:17 17.1 °C 12.8 °C 1024.3 hPa Calm   1.6 km/h 76 % 0.0 mm
01:22 16.9 °C 12.6 °C 1024.3 hPa WNW 1.6 km/h 1.6 km/h 76 % 0.0 mm
01:27 16.1 °C 12.5 °C 1024.3 hPa WNW 3.2 km/h 3.2 km/h 79 % 0.0 mm
01:32 16.1 °C 12.8 °C 1024.3 hPa NW 1.6 km/h 3.2 km/h 81 % 0.0 mm
01:42 16.3 °C 12.8 °C 1023.9 hPa NNE 1.6 km/h 3.2 km/h 80 % 0.0 mm
01:47 16.4 °C 12.7 °C 1023.9 hPa NNE 4.8 km/h 6.4 km/h 79 % 0.0 mm
01:52 16.7 °C 12.8 °C 1023.9 hPa NNE 3.2 km/h 6.4 km/h 78 % 0.0 mm
01:57 16.6 °C 12.7 °C 1023.9 hPa NNE 4.8 km/h 6.4 km/h 78 % 0.0 mm
02:02 16.6 °C 12.9 °C 1023.9 hPa NNE 1.6 km/h 6.4 km/h 79 % 0.0 mm
02:07 16.4 °C 12.7 °C 1023.9 hPa Calm   4.8 km/h 79 % 0.0 mm
02:12 16.4 °C 12.7 °C 1023.9 hPa Calm   4.8 km/h 79 % 0.0 mm
02:17 16.3 °C 12.8 °C 1023.9 hPa Calm   3.2 km/h 80 % 0.0 mm
02:22 16.3 °C 12.8 °C 1023.9 hPa Calm   1.6 km/h 80 % 0.0 mm
02:27 16.2 °C 12.7 °C 1023.9 hPa Calm   1.6 km/h 80 % 0.0 mm
02:37 15.7 °C 12.4 °C 1023.6 hPa Calm     81 % 0.0 mm
02:47 15.1 °C 12.4 °C 1023.6 hPa Calm     84 % 0.0 mm
02:52 15.1 °C 12.6 °C 1023.2 hPa Calm     85 % 0.0 mm
03:02 14.8 °C 12.5 °C 1023.2 hPa Calm     86 % 0.0 mm
03:12 14.9 °C 12.4 °C 1023.2 hPa Calm     85 % 0.0 mm
03:17 14.4 °C 11.7 °C 1023.2 hPa WNW 1.6 km/h 4.8 km/h 84 % 0.0 mm
03:22 14.3 °C 12.2 °C 1023.2 hPa WNW 1.6 km/h 4.8 km/h 87 % 0.0 mm
03:32 14.3 °C 11.8 °C 1022.9 hPa Calm   3.2 km/h 85 % 0.0 mm
03:42 13.9 °C 11.9 °C 1022.9 hPa Calm     88 % 0.0 mm
03:47 13.9 °C 11.9 °C 1022.9 hPa Calm     88 % 0.0 mm
03:52 13.8 °C 11.8 °C 1022.9 hPa Calm     88 % 0.0 mm
03:57 13.7 °C 11.7 °C 1022.9 hPa Calm     88 % 0.0 mm
04:02 13.6 °C 11.8 °C 1022.9 hPa Calm     89 % 0.0 mm
04:07 13.6 °C 11.8 °C 1022.6 hPa Calm     89 % 0.0 mm
04:12 13.7 °C 11.9 °C 1022.6 hPa Calm     89 % 0.0 mm
04:17 13.8 °C 12.0 °C 1022.6 hPa NNE 3.2 km/h   89 % 0.0 mm
04:22 13.9 °C 11.8 °C 1022.6 hPa NNE 3.2 km/h 4.8 km/h 87 % 0.0 mm
04:27 13.9 °C 11.8 °C 1022.2 hPa Calm   4.8 km/h 87 % 0.0 mm
04:32 13.1 °C 10.8 °C 1022.6 hPa WNW 1.6 km/h 4.8 km/h 86 % 0.0 mm
04:37 12.9 °C 11.1 °C 1022.2 hPa WNW 1.6 km/h 3.2 km/h 89 % 0.0 mm
04:42 12.8 °C 11.0 °C 1022.2 hPa Calm   3.2 km/h 89 % 0.0 mm
04:47 12.7 °C 11.1 °C 1022.2 hPa Calm   3.2 km/h 90 % 0.0 mm
04:52 12.7 °C 11.3 °C 1022.2 hPa Calm   3.2 km/h 91 % 0.0 mm
04:57 12.5 °C 11.1 °C 1022.2 hPa Calm     91 % 0.0 mm
05:02 12.6 °C 11.2 °C 1022.2 hPa Calm     91 % 0.0 mm
05:12 12.8 °C 11.4 °C 1021.9 hPa Calm   1.6 km/h 91 % 0.0 mm
05:17 12.7 °C 11.3 °C 1021.9 hPa Calm   1.6 km/h 91 % 0.0 mm
05:22 12.6 °C 11.2 °C 1021.6 hPa Calm   1.6 km/h 91 % 0.0 mm
05:27 12.7 °C 11.3 °C 1021.6 hPa Calm     91 % 0.0 mm
05:32 12.8 °C 11.4 °C 1021.6 hPa Calm   1.6 km/h 91 % 0.0 mm
05:37 12.8 °C 11.2 °C 1021.6 hPa Calm   1.6 km/h 90 % 0.0 mm
05:42 12.6 °C 11.0 °C 1021.6 hPa Calm   1.6 km/h 90 % 0.0 mm
05:47 12.4 °C 10.8 °C 1021.6 hPa Calm     90 % 0.0 mm
05:52 12.1 °C 10.7 °C 1021.6 hPa WNW 3.2 km/h 3.2 km/h 91 % 0.0 mm
05:57 12.0 °C 10.7 °C 1021.6 hPa WNW 1.6 km/h 3.2 km/h 92 % 0.0 mm
06:02 12.1 °C 10.8 °C 1021.6 hPa North 1.6 km/h 3.2 km/h 92 % 0.0 mm
06:07 12.2 °C 11.1 °C 1021.6 hPa Calm   3.2 km/h 93 % 0.0 mm
06:12 12.3 °C 11.0 °C 1021.6 hPa Calm   3.2 km/h 92 % 0.0 mm
06:17 12.2 °C 10.9 °C 1021.6 hPa Calm   1.6 km/h 92 % 0.0 mm
06:22 12.3 °C 11.0 °C 1021.6 hPa Calm   1.6 km/h 92 % 0.0 mm
06:32 12.6 °C 11.2 °C 1021.6 hPa Calm     91 % 0.0 mm
06:42 12.8 °C 11.4 °C 1021.6 hPa Calm     91 % 0.0 mm
06:52 12.7 °C 11.1 °C 1021.2 hPa Calm   1.6 km/h 90 % 0.0 mm
07:02 12.7 °C 11.3 °C 1021.6 hPa WNW 1.6 km/h 1.6 km/h 91 % 0.0 mm
07:12 12.9 °C 11.6 °C 1021.2 hPa Calm   1.6 km/h 92 % 0.0 mm
07:17 13.1 °C 11.8 °C 1021.2 hPa North 3.2 km/h 3.2 km/h 92 % 0.0 mm
07:22 13.6 °C 12.0 °C 1021.2 hPa Calm   3.2 km/h 90 % 0.0 mm
07:32 14.6 °C 12.5 °C 1021.2 hPa Calm   3.2 km/h 87 % 0.0 mm
07:42 15.2 °C 12.1 °C 1021.2 hPa Calm     82 % 0.0 mm
07:47 15.1 °C 12.4 °C 1021.2 hPa Calm     84 % 0.0 mm
07:52 15.8 °C 13.1 °C 1021.2 hPa Calm     84 % 0.0 mm
07:57 16.6 °C 13.1 °C 1021.2 hPa Calm     80 % 0.0 mm
08:02 17.1 °C 13.0 °C 1021.2 hPa Calm   1.6 km/h 77 % 0.0 mm
08:12 17.9 °C 12.8 °C 1021.2 hPa Calm   1.6 km/h 72 % 0.0 mm
08:17 17.9 °C 12.8 °C 1020.9 hPa Calm   1.6 km/h 72 % 0.0 mm
08:22 17.9 °C 12.6 °C 1021.2 hPa Calm   1.6 km/h 71 % 0.0 mm
08:32 17.9 °C 12.8 °C 1020.9 hPa Calm   3.2 km/h 72 % 0.0 mm
08:37 18.0 °C 12.9 °C 1020.9 hPa Calm   4.8 km/h 72 % 0.0 mm
08:42 18.3 °C 13.2 °C 1020.9 hPa Calm   4.8 km/h 72 % 0.0 mm
08:47 17.9 °C 13.0 °C 1020.5 hPa East 1.6 km/h 4.8 km/h 73 % 0.0 mm
08:52 17.7 °C 13.0 °C 1020.5 hPa ENE 1.6 km/h 4.8 km/h 74 % 0.0 mm
08:57 18.1 °C 13.4 °C 1020.5 hPa East 1.6 km/h 4.8 km/h 74 % 0.0 mm
09:02 18.1 °C 13.4 °C 1020.5 hPa Calm   4.8 km/h 74 % 0.0 mm
09:12 18.6 °C 13.7 °C 1020.5 hPa East 1.6 km/h 4.8 km/h 73 % 0.0 mm
09:17 18.4 °C 13.3 °C 1020.5 hPa ENE 4.8 km/h 4.8 km/h 72 % 0.0 mm
09:22 18.1 °C 13.2 °C 1020.5 hPa East 4.8 km/h 4.8 km/h 73 % 0.0 mm
09:27 18.2 °C 13.7 °C 1020.5 hPa East 1.6 km/h 6.4 km/h 75 % 0.0 mm
09:32 18.6 °C 13.7 °C 1020.5 hPa East 3.2 km/h 6.4 km/h 73 % 0.0 mm
09:37 18.7 °C 14.2 °C 1020.2 hPa Calm   6.4 km/h 75 % 0.0 mm
09:42 19.1 °C 13.9 °C 1020.2 hPa East 1.6 km/h 6.4 km/h 72 % 0.0 mm
09:47 19.4 °C 14.4 °C 1020.2 hPa Calm   4.8 km/h 73 % 0.0 mm
09:52 19.6 °C 14.6 °C 1020.2 hPa ENE 1.6 km/h 4.8 km/h 73 % 0.0 mm
09:57 19.6 °C 14.6 °C 1020.2 hPa Calm   6.4 km/h 73 % 0.0 mm
10:02 19.9 °C 14.7 °C 1020.2 hPa ESE 1.6 km/h 8.0 km/h 72 % 0.0 mm
10:12 20.3 °C 14.9 °C 1019.9 hPa ENE 1.6 km/h 8.0 km/h 71 % 0.0 mm
10:17 20.4 °C 15.0 °C 1019.9 hPa ENE 8.0 km/h 8.0 km/h 71 % 0.0 mm
10:22 20.4 °C 15.0 °C 1019.9 hPa ENE 1.6 km/h 9.7 km/h 71 % 0.0 mm
10:32 21.0 °C 15.3 °C 1019.9 hPa East 1.6 km/h 9.7 km/h 70 % 0.0 mm
10:42 20.8 °C 15.3 °C 1019.5 hPa SSE 3.2 km/h 6.4 km/h 71 % 0.0 mm
10:47 21.3 °C 15.6 °C 1019.5 hPa ENE 3.2 km/h 8.0 km/h 70 % 0.0 mm
10:52 21.6 °C 15.4 °C 1019.5 hPa SE 6.4 km/h 8.0 km/h 68 % 0.0 mm
10:57 21.7 °C 15.5 °C 1019.5 hPa ENE 1.6 km/h 8.0 km/h 68 % 0.0 mm
11:02 21.8 °C 15.4 °C 1019.2 hPa Calm   6.4 km/h 67 % 0.0 mm
11:12 22.4 °C 15.5 °C 1019.2 hPa ENE 3.2 km/h 8.0 km/h 65 % 0.0 mm
11:17 22.4 °C 15.5 °C 1019.2 hPa East 1.6 km/h 8.0 km/h 65 % 0.0 mm
11:22 22.6 °C 16.2 °C 1018.8 hPa ENE 1.6 km/h 6.4 km/h 67 % 0.0 mm
11:27 22.9 °C 16.4 °C 1018.8 hPa SE 3.2 km/h 6.4 km/h 67 % 0.0 mm
11:32 23.3 °C 16.6 °C 1018.8 hPa ENE 3.2 km/h 6.4 km/h 66 % 0.0 mm
11:42 23.4 °C 16.9 °C 1018.8 hPa East 3.2 km/h 6.4 km/h 67 % 0.0 mm
11:47 23.9 °C 16.7 °C 1018.8 hPa SE 4.8 km/h 8.0 km/h 64 % 0.0 mm
11:52 24.0 °C 16.0 °C 1018.8 hPa South 3.2 km/h 11.3 km/h 61 % 0.0 mm
12:02 24.1 °C 16.1 °C 1018.5 hPa SE 9.7 km/h 11.3 km/h 61 % 0.0 mm
12:12 24.1 °C 16.1 °C 1018.5 hPa South 8.0 km/h 11.3 km/h 61 % 0.0 mm
12:17 24.4 °C 16.4 °C 1018.2 hPa ESE 4.8 km/h 12.9 km/h 61 % 0.0 mm
12:22 24.4 °C 16.1 °C 1018.2 hPa WSW 1.6 km/h 12.9 km/h 60 % 0.0 mm
12:32 24.7 °C 16.7 °C 1018.2 hPa SE 4.8 km/h 12.9 km/h 61 % 0.0 mm
12:37 24.8 °C 16.5 °C 1018.2 hPa SSW 6.4 km/h 12.9 km/h 60 % 0.0 mm
12:42 24.9 °C 16.1 °C 1018.2 hPa South 3.2 km/h 12.9 km/h 58 % 0.0 mm
12:47 24.9 °C 16.6 °C 1018.2 hPa East 4.8 km/h 16.1 km/h 60 % 0.0 mm
12:52 25.1 °C 16.5 °C 1017.8 hPa SSE 3.2 km/h 16.1 km/h 59 % 0.0 mm
13:02 25.2 °C 16.3 °C 1017.8 hPa SSW 8.0 km/h 12.9 km/h 58 % 0.0 mm
13:07 25.4 °C 16.3 °C 1017.8 hPa South 6.4 km/h 12.9 km/h 57 % 0.0 mm
13:12 25.7 °C 16.0 °C 1017.8 hPa SSE 4.8 km/h 14.5 km/h 55 % 0.0 mm
13:17 26.0 °C 16.5 °C 1017.8 hPa SSE 3.2 km/h 14.5 km/h 56 % 0.0 mm
13:22 25.9 °C 15.9 °C 1017.8 hPa SW 12.9 km/h 14.5 km/h 54 % 0.0 mm
13:27 25.8 °C 15.2 °C 1017.5 hPa SSE 6.4 km/h 19.3 km/h 52 % 0.0 mm
13:32 25.9 °C 15.3 °C 1017.5 hPa SW 11.3 km/h 19.3 km/h 52 % 0.0 mm
13:37 26.1 °C 15.5 °C 1017.5 hPa SSE 6.4 km/h 19.3 km/h 52 % 0.0 mm
13:42 26.2 °C 15.0 °C 1017.2 hPa SW 8.0 km/h 17.7 km/h 50 % 0.0 mm
13:47 26.2 °C 15.6 °C 1017.2 hPa SSW 4.8 km/h 17.7 km/h 52 % 0.0 mm
13:52 26.4 °C 15.1 °C 1017.2 hPa WSW 9.7 km/h 17.7 km/h 50 % 0.0 mm
13:57 26.4 °C 13.8 °C 1017.2 hPa SW 17.7 km/h 17.7 km/h 46 % 0.0 mm
14:02 26.5 °C 14.6 °C 1017.2 hPa SSW 6.4 km/h 22.5 km/h 48 % 0.0 mm
14:07 26.5 °C 15.2 °C 1017.2 hPa SW 12.9 km/h 22.5 km/h 50 % 0.0 mm
14:12 26.7 °C 15.1 °C 1017.2 hPa SW 11.3 km/h 19.3 km/h 49 % 0.0 mm
14:17 26.6 °C 15.6 °C 1017.2 hPa SSW 8.0 km/h 19.3 km/h 51 % 0.0 mm
14:22 26.7 °C 15.4 °C 1017.2 hPa SW 6.4 km/h 16.1 km/h 50 % 0.0 mm
14:27 27.0 °C 16.0 °C 1017.2 hPa SW 14.5 km/h 16.1 km/h 51 % 0.0 mm
14:32 27.1 °C 14.5 °C 1016.8 hPa WSW 12.9 km/h 16.1 km/h 46 % 0.0 mm
14:37 27.3 °C 14.3 °C 1016.8 hPa SW 4.8 km/h 16.1 km/h 45 % 0.0 mm
14:42 27.2 °C 14.2 °C 1016.8 hPa SW 4.8 km/h 16.1 km/h 45 % 0.0 mm
14:47 27.5 °C 15.2 °C 1016.8 hPa SW 11.3 km/h 16.1 km/h 47 % 0.0 mm
14:52 27.4 °C 14.4 °C 1016.8 hPa SW 17.7 km/h 17.7 km/h 45 % 0.0 mm
14:57 27.3 °C 14.3 °C 1016.5 hPa WSW 14.5 km/h 17.7 km/h 45 % 0.0 mm
15:02 27.2 °C 14.9 °C 1016.5 hPa SW 11.3 km/h 20.9 km/h 47 % 0.0 mm
15:07 27.2 °C 15.2 °C 1016.5 hPa SSW 9.7 km/h 20.9 km/h 48 % 0.0 mm
15:12 27.2 °C 14.2 °C 1016.5 hPa SW 14.5 km/h 20.9 km/h 45 % 0.0 mm
15:17 27.3 °C 14.7 °C 1016.5 hPa SSW 12.9 km/h 17.7 km/h 46 % 0.0 mm
15:22 27.2 °C 14.2 °C 1016.1 hPa SW 6.4 km/h 19.3 km/h 45 % 0.0 mm
15:27 27.3 °C 14.7 °C 1016.1 hPa SW 8.0 km/h 19.3 km/h 46 % 0.0 mm
15:32 27.4 °C 15.1 °C 1016.1 hPa WSW 11.3 km/h 19.3 km/h 47 % 0.0 mm
15:37 27.6 °C 14.6 °C 1016.1 hPa SW 6.4 km/h 16.1 km/h 45 % 0.0 mm
15:42 27.5 °C 14.5 °C 1016.1 hPa SSW 9.7 km/h 19.3 km/h 45 % 0.0 mm
15:47 27.4 °C 14.8 °C 1016.1 hPa WSW 4.8 km/h 19.3 km/h 46 % 0.0 mm
15:52 27.6 °C 14.9 °C 1016.1 hPa SW 6.4 km/h 19.3 km/h 46 % 0.0 mm
15:57 27.7 °C 15.0 °C 1015.8 hPa WSW 3.2 km/h 17.7 km/h 46 % 0.0 mm
16:02 27.8 °C 14.4 °C 1015.8 hPa SW 8.0 km/h 12.9 km/h 44 % 0.0 mm
16:07 27.9 °C 14.2 °C 1015.8 hPa SSW 4.8 km/h 14.5 km/h 43 % 0.0 mm
16:12 27.8 °C 14.1 °C 1015.5 hPa West 11.3 km/h 14.5 km/h 43 % 0.0 mm
16:17 27.7 °C 14.3 °C 1015.5 hPa SW 9.7 km/h 19.3 km/h 44 % 0.0 mm
16:22 27.9 °C 13.8 °C 1015.5 hPa WSW 9.7 km/h 19.3 km/h 42 % 0.0 mm
16:27 27.8 °C 14.4 °C 1015.5 hPa SW 4.8 km/h 17.7 km/h 44 % 0.0 mm
16:32 27.8 °C 14.1 °C 1015.5 hPa SE 3.2 km/h 17.7 km/h 43 % 0.0 mm
16:37 27.7 °C 14.3 °C 1015.5 hPa SW 4.8 km/h 17.7 km/h 44 % 0.0 mm
16:42 27.5 °C 13.8 °C 1015.1 hPa SW 6.4 km/h 19.3 km/h 43 % 0.0 mm
16:47 27.6 °C 14.6 °C 1015.1 hPa SW 9.7 km/h 19.3 km/h 45 % 0.0 mm
16:52 27.6 °C 14.2 °C 1015.1 hPa SSW 4.8 km/h 19.3 km/h 44 % 0.0 mm
16:57 27.7 °C 14.3 °C 1015.1 hPa SSW 9.7 km/h 17.7 km/h 44 % 0.0 mm
17:02 27.8 °C 14.8 °C 1015.1 hPa South 6.4 km/h 17.7 km/h 45 % 0.0 mm
17:07 27.8 °C 14.1 °C 1015.1 hPa SW 8.0 km/h 14.5 km/h 43 % 0.0 mm
17:12 27.7 °C 15.0 °C 1014.8 hPa SW 11.3 km/h 14.5 km/h 46 % 0.0 mm
17:17 27.6 °C 13.9 °C 1014.8 hPa SSW 11.3 km/h 20.9 km/h 43 % 0.0 mm
17:22 27.6 °C 14.6 °C 1014.8 hPa SW 9.7 km/h 20.9 km/h 45 % 0.0 mm
17:32 27.3 °C 15.3 °C 1014.8 hPa SSW 8.0 km/h 16.1 km/h 48 % 0.0 mm
17:37 27.2 °C 14.9 °C 1014.8 hPa SW 9.7 km/h 12.9 km/h 47 % 0.0 mm
17:42 27.1 °C 16.1 °C 1014.8 hPa SSW 8.0 km/h 14.5 km/h 51 % 0.0 mm
17:47 27.1 °C 16.4 °C 1014.4 hPa SW 6.4 km/h 14.5 km/h 52 % 0.0 mm
17:52 27.1 °C 16.1 °C 1014.4 hPa SSW 3.2 km/h 14.5 km/h 51 % 0.0 mm
17:57 27.2 °C 16.2 °C 1014.4 hPa SW 6.4 km/h 12.9 km/h 51 % 0.0 mm
18:02 27.5 °C 16.5 °C 1014.4 hPa WSW 8.0 km/h 14.5 km/h 51 % 0.0 mm
18:07 27.5 °C 15.5 °C 1014.4 hPa South 8.0 km/h 14.5 km/h 48 % 0.0 mm
18:12 27.4 °C 14.8 °C 1014.4 hPa SSW 8.0 km/h 14.5 km/h 46 % 0.0 mm
18:17 27.3 °C 14.7 °C 1014.4 hPa SSE 9.7 km/h 14.5 km/h 46 % 0.0 mm
18:22 27.3 °C 14.7 °C 1014.4 hPa SW 14.5 km/h 14.5 km/h 46 % 0.0 mm
18:32 27.0 °C 15.7 °C 1014.4 hPa SW 4.8 km/h 14.5 km/h 50 % 0.0 mm
18:42 26.8 °C 16.1 °C 1014.1 hPa SW 3.2 km/h 12.9 km/h 52 % 0.0 mm
18:47 26.7 °C 15.7 °C 1014.1 hPa SSW 8.0 km/h 11.3 km/h 51 % 0.0 mm
18:52 26.5 °C 16.4 °C 1014.1 hPa SW 6.4 km/h 11.3 km/h 54 % 0.0 mm
18:57 26.3 °C 16.2 °C 1014.1 hPa SW 4.8 km/h 9.7 km/h 54 % 0.0 mm
19:02 26.3 °C 16.0 °C 1014.1 hPa SW 4.8 km/h 9.7 km/h 53 % 0.0 mm
19:07 26.2 °C 16.2 °C 1014.1 hPa SSW 3.2 km/h 9.7 km/h 54 % 0.0 mm
19:12 26.3 °C 16.0 °C 1014.1 hPa SSW 4.8 km/h 9.7 km/h 53 % 0.0 mm
19:17 26.3 °C 16.2 °C 1013.8 hPa SW 3.2 km/h 9.7 km/h 54 % 0.0 mm
19:22 26.6 °C 16.5 °C 1014.1 hPa SW 4.8 km/h 8.0 km/h 54 % 0.0 mm
19:27 26.7 °C 16.0 °C 1014.1 hPa WSW 3.2 km/h 8.0 km/h 52 % 0.0 mm
19:32 26.7 °C 16.0 °C 1014.1 hPa SSW 8.0 km/h 8.0 km/h 52 % 0.0 mm
19:37 26.8 °C 15.8 °C 1014.1 hPa SW 8.0 km/h 8.0 km/h 51 % 0.0 mm
19:42 26.9 °C 16.2 °C 1013.8 hPa WSW 3.2 km/h 11.3 km/h 52 % 0.0 mm
19:47 26.9 °C 15.9 °C 1013.8 hPa WSW 6.4 km/h 11.3 km/h 51 % 0.0 mm
19:52 26.7 °C 16.3 °C 1013.8 hPa South 4.8 km/h 11.3 km/h 53 % 0.0 mm
19:57 26.6 °C 16.5 °C 1013.8 hPa SW 6.4 km/h 11.3 km/h 54 % 0.0 mm
20:02 26.5 °C 16.7 °C 1013.8 hPa SW 3.2 km/h 11.3 km/h 55 % 0.0 mm
20:07 26.3 °C 16.5 °C 1013.8 hPa SW 6.4 km/h 11.3 km/h 55 % 0.0 mm
20:12 26.2 °C 16.7 °C 1013.8 hPa WSW 3.2 km/h 8.0 km/h 56 % 0.0 mm
20:17 26.1 °C 16.4 °C 1013.8 hPa SW 4.8 km/h 8.0 km/h 55 % 0.0 mm
20:22 25.9 °C 15.9 °C 1013.8 hPa SW 4.8 km/h 8.0 km/h 54 % 0.0 mm
20:27 25.9 °C 15.9 °C 1013.8 hPa WSW 4.8 km/h 8.0 km/h 54 % 0.0 mm
20:32 25.8 °C 15.8 °C 1013.8 hPa SSW 6.4 km/h 8.0 km/h 54 % 0.0 mm
20:37 25.6 °C 16.2 °C 1013.8 hPa SSW 3.2 km/h 8.0 km/h 56 % 0.0 mm
20:47 25.3 °C 16.2 °C 1013.8 hPa WSW 3.2 km/h 8.0 km/h 57 % 0.0 mm
20:52 25.2 °C 16.1 °C 1013.8 hPa SW 3.2 km/h 8.0 km/h 57 % 0.0 mm
20:57 25.1 °C 16.3 °C 1013.8 hPa WSW 4.8 km/h 8.0 km/h 58 % 0.0 mm
21:02 24.9 °C 15.8 °C 1013.8 hPa WSW 1.6 km/h 8.0 km/h 57 % 0.0 mm
21:07 24.8 °C 15.7 °C 1013.8 hPa SW 1.6 km/h 8.0 km/h 57 % 0.0 mm
21:12 24.6 °C 15.5 °C 1013.8 hPa WSW 3.2 km/h 9.7 km/h 57 % 0.0 mm
21:17 24.4 °C 15.9 °C 1013.8 hPa WSW 3.2 km/h 9.7 km/h 59 % 0.0 mm
21:22 24.2 °C 17.0 °C 1013.8 hPa West 14.5 km/h 14.5 km/h 64 % 0.0 mm
21:27 23.3 °C 16.1 °C 1014.1 hPa WNW 11.3 km/h 25.7 km/h 64 % 0.0 mm
21:32 22.9 °C 16.0 °C 1014.4 hPa WNW 17.7 km/h 25.7 km/h 65 % 0.0 mm
21:37 22.6 °C 15.9 °C 1014.4 hPa WNW 6.4 km/h 25.7 km/h 66 % 0.0 mm
21:42 22.3 °C 15.9 °C 1014.4 hPa WNW 3.2 km/h 22.5 km/h 67 % 0.0 mm
21:47 22.0 °C 15.8 °C 1014.4 hPa NW 3.2 km/h 22.5 km/h 68 % 0.0 mm
21:52 21.8 °C 15.9 °C 1014.4 hPa WNW 6.4 km/h 20.9 km/h 69 % 0.0 mm
21:57 21.6 °C 15.9 °C 1014.4 hPa WNW 11.3 km/h 17.7 km/h 70 % 0.0 mm
22:02 21.4 °C 15.9 °C 1014.4 hPa WNW 9.7 km/h 17.7 km/h 71 % 0.0 mm
22:07 21.4 °C 15.9 °C 1014.8 hPa West 17.7 km/h 20.9 km/h 71 % 0.0 mm
22:12 21.3 °C 16.0 °C 1014.8 hPa NW 4.8 km/h 24.1 km/h 72 % 0.0 mm
22:17 21.1 °C 15.9 °C 1014.8 hPa WNW 4.8 km/h 24.1 km/h 72 % 0.0 mm
22:22 20.9 °C 15.9 °C 1015.1 hPa West 12.9 km/h 24.1 km/h 73 % 0.0 mm
22:27 20.8 °C 16.2 °C 1015.1 hPa West 9.7 km/h 22.5 km/h 75 % 0.0 mm
22:32 20.6 °C 16.0 °C 1015.1 hPa WNW 16.1 km/h 29.0 km/h 75 % 0.0 mm
22:37 20.4 °C 15.8 °C 1015.1 hPa West 9.7 km/h 29.0 km/h 75 % 0.0 mm
22:42 20.2 °C 15.8 °C 1015.1 hPa WNW 8.0 km/h 29.0 km/h 76 % 0.0 mm
22:47 20.0 °C 15.6 °C 1015.5 hPa WNW 11.3 km/h 30.6 km/h 76 % 0.0 mm
22:52 19.9 °C 15.5 °C 1015.5 hPa WNW 9.7 km/h 30.6 km/h 76 % 0.0 mm
22:57 19.7 °C 15.3 °C 1015.5 hPa West 8.0 km/h 30.6 km/h 76 % 0.0 mm
23:02 19.6 °C 15.3 °C 1015.5 hPa WNW 6.4 km/h 30.6 km/h 76 % 0.0 mm
23:07 19.5 °C 15.2 °C 1015.5 hPa West 11.3 km/h 22.5 km/h 76 % 0.0 mm
23:12 19.4 °C 15.1 °C 1015.5 hPa West 9.7 km/h 24.1 km/h 76 % 0.0 mm
23:17 19.3 °C 15.2 °C 1015.5 hPa West 17.7 km/h 24.1 km/h 77 % 0.0 mm
23:22 19.2 °C 15.1 °C 1015.5 hPa WNW 4.8 km/h 22.5 km/h 77 % 0.0 mm
23:27 19.1 °C 15.2 °C 1015.5 hPa WNW 12.9 km/h 27.4 km/h 78 % 0.0 mm
23:32 19.0 °C 15.1 °C 1015.5 hPa West 8.0 km/h 27.4 km/h 78 % 0.0 mm
23:37 18.8 °C 14.9 °C 1015.5 hPa WSW 6.4 km/h 27.4 km/h 78 % 0.0 mm
23:42 18.7 °C 14.8 °C 1015.5 hPa WNW 3.2 km/h 16.1 km/h 78 % 0.0 mm
23:52 18.6 °C 14.9 °C 1015.5 hPa West 6.4 km/h 17.7 km/h 79 % 0.0 mm
23:57 18.4 °C 14.9 °C 1015.8 hPa West 6.4 km/h 17.7 km/h 80 % 0.0 mm
Meteo18
Compliments of Weather Underground - 4 mb

Script developed by  Jim McMurry - jmcmurry@mwt.net Adapted for the template by  Wim van der Kuil - Leuven-Template.eu

You find our weather info also at:

European Weather Network

Weather Underground

Equipment we use:

Weather-station
Davis Vue

Weather-program
Meteohub

Weather-server
Raspberry PI 2 B+

Provider
1 and 1

Davis Vue

Meteohub

Raspberry PI 2 B+

1 and 1